sensor_id;sensor_type;location;lat;lon;timestamp;temperature;humidity
11505;DHT22;5809;53.262;10.408;2023-10-19T00:02:45;7.30;99.90
11505;DHT22;5809;53.262;10.408;2023-10-19T00:05:11;7.30;99.90
11505;DHT22;5809;53.262;10.408;2023-10-19T00:07:40;7.30;99.90
11505;DHT22;5809;53.262;10.408;2023-10-19T00:10:06;7.30;99.90
11505;DHT22;5809;53.262;10.408;2023-10-19T00:12:36;7.30;99.90
11505;DHT22;5809;53.262;10.408;2023-10-19T00:15:05;7.30;99.90
11505;DHT22;5809;53.262;10.408;2023-10-19T00:17:33;7.30;99.90
11505;DHT22;5809;53.262;10.408;2023-10-19T00:19:58;7.30;99.90
11505;DHT22;5809;53.262;10.408;2023-10-19T00:22:54;7.30;99.90
11505;DHT22;5809;53.262;10.408;2023-10-19T00:25:19;7.30;99.90
11505;DHT22;5809;53.262;10.408;2023-10-19T00:27:50;7.30;99.90
11505;DHT22;5809;53.262;10.408;2023-10-19T00:32:49;7.30;99.90
11505;DHT22;5809;53.262;10.408;2023-10-19T00:35:18;7.30;99.90
11505;DHT22;5809;53.262;10.408;2023-10-19T00:37:55;7.40;99.90
11505;DHT22;5809;53.262;10.408;2023-10-19T00:43:07;7.50;99.90
11505;DHT22;5809;53.262;10.408;2023-10-19T00:48:07;7.40;99.90
11505;DHT22;5809;53.262;10.408;2023-10-19T00:50:37;7.40;99.90
11505;DHT22;5809;53.262;10.408;2023-10-19T00:53:04;7.40;99.90
11505;DHT22;5809;53.262;10.408;2023-10-19T00:55:34;7.40;99.90
11505;DHT22;5809;53.262;10.408;2023-10-19T00:58:02;7.40;99.90
11505;DHT22;5809;53.262;10.408;2023-10-19T01:00:36;7.40;99.90
11505;DHT22;5809;53.262;10.408;2023-10-19T01:03:10;7.50;99.90
11505;DHT22;5809;53.262;10.408;2023-10-19T01:08:13;7.50;99.90
11505;DHT22;5809;53.262;10.408;2023-10-19T01:10:50;7.40;99.90
11505;DHT22;5809;53.262;10.408;2023-10-19T01:15:54;7.50;99.90
11505;DHT22;5809;53.262;10.408;2023-10-19T01:18:21;7.50;99.90
11505;DHT22;5809;53.262;10.408;2023-10-19T01:23:23;7.50;99.90
11505;DHT22;5809;53.262;10.408;2023-10-19T01:25:55;7.50;99.90
11505;DHT22;5809;53.262;10.408;2023-10-19T01:28:35;7.50;99.90
11505;DHT22;5809;53.262;10.408;2023-10-19T01:31:15;7.50;99.90
11505;DHT22;5809;53.262;10.408;2023-10-19T01:33:48;7.50;99.90
11505;DHT22;5809;53.262;10.408;2023-10-19T01:38:53;7.50;99.90
11505;DHT22;5809;53.262;10.408;2023-10-19T01:41:20;7.50;99.90
11505;DHT22;5809;53.262;10.408;2023-10-19T01:43:48;7.50;99.90
11505;DHT22;5809;53.262;10.408;2023-10-19T01:46:15;7.50;99.90
11505;DHT22;5809;53.262;10.408;2023-10-19T01:48:48;7.50;99.90
11505;DHT22;5809;53.262;10.408;2023-10-19T01:51:15;7.50;99.90
11505;DHT22;5809;53.262;10.408;2023-10-19T01:53:42;7.50;99.90
11505;DHT22;5809;53.262;10.408;2023-10-19T01:56:11;7.50;99.90
11505;DHT22;5809;53.262;10.408;2023-10-19T01:58:40;7.40;99.90
11505;DHT22;5809;53.262;10.408;2023-10-19T02:01:07;7.50;99.90
11505;DHT22;5809;53.262;10.408;2023-10-19T02:06:13;7.50;99.90
11505;DHT22;5809;53.262;10.408;2023-10-19T02:08:46;7.50;99.90
11505;DHT22;5809;53.262;10.408;2023-10-19T02:11:15;7.50;99.90
11505;DHT22;5809;53.262;10.408;2023-10-19T02:13:45;7.50;99.90
11505;DHT22;5809;53.262;10.408;2023-10-19T02:16:13;7.60;99.90
11505;DHT22;5809;53.262;10.408;2023-10-19T02:18:41;7.50;99.90
11505;DHT22;5809;53.262;10.408;2023-10-19T02:23:38;7.50;99.90
11505;DHT22;5809;53.262;10.408;2023-10-19T02:26:05;7.50;99.90
11505;DHT22;5809;53.262;10.408;2023-10-19T02:28:32;7.50;99.90
11505;DHT22;5809;53.262;10.408;2023-10-19T02:31:03;7.40;99.90
11505;DHT22;5809;53.262;10.408;2023-10-19T02:33:41;7.40;99.90
11505;DHT22;5809;53.262;10.408;2023-10-19T02:36:11;7.30;99.90
11505;DHT22;5809;53.262;10.408;2023-10-19T02:38:39;7.30;99.90
11505;DHT22;5809;53.262;10.408;2023-10-19T02:43:37;7.20;99.90
11505;DHT22;5809;53.262;10.408;2023-10-19T02:48:30;7.10;99.90
11505;DHT22;5809;53.262;10.408;2023-10-19T02:50:57;7.00;99.90
11505;DHT22;5809;53.262;10.408;2023-10-19T02:53:32;6.90;99.90
11505;DHT22;5809;53.262;10.408;2023-10-19T02:55:59;6.90;99.90
11505;DHT22;5809;53.262;10.408;2023-10-19T02:58:39;6.80;99.90
11505;DHT22;5809;53.262;10.408;2023-10-19T03:01:12;6.70;99.90
11505;DHT22;5809;53.262;10.408;2023-10-19T03:03:43;6.60;99.90
11505;DHT22;5809;53.262;10.408;2023-10-19T03:06:09;6.40;99.90
11505;DHT22;5809;53.262;10.408;2023-10-19T03:16:02;6.10;99.90
11505;DHT22;5809;53.262;10.408;2023-10-19T03:18:33;6.10;99.90
11505;DHT22;5809;53.262;10.408;2023-10-19T03:21:00;6.10;99.90
11505;DHT22;5809;53.262;10.408;2023-10-19T03:23:27;6.10;99.90
11505;DHT22;5809;53.262;10.408;2023-10-19T03:25:54;6.00;99.90
11505;DHT22;5809;53.262;10.408;2023-10-19T03:31:09;6.00;99.90
11505;DHT22;5809;53.262;10.408;2023-10-19T03:36:10;6.00;99.90
11505;DHT22;5809;53.262;10.408;2023-10-19T03:38:38;6.00;99.90
11505;DHT22;5809;53.262;10.408;2023-10-19T03:41:06;6.00;99.90
11505;DHT22;5809;53.262;10.408;2023-10-19T03:43:34;6.00;99.90
11505;DHT22;5809;53.262;10.408;2023-10-19T03:46:02;6.00;99.90
11505;DHT22;5809;53.262;10.408;2023-10-19T03:48:41;5.90;99.90
11505;DHT22;5809;53.262;10.408;2023-10-19T03:58:38;5.90;99.90
11505;DHT22;5809;53.262;10.408;2023-10-19T04:01:08;6.00;99.90
11505;DHT22;5809;53.262;10.408;2023-10-19T04:03:36;5.90;99.90
11505;DHT22;5809;53.262;10.408;2023-10-19T04:06:05;5.90;99.90
11505;DHT22;5809;53.262;10.408;2023-10-19T04:11:06;5.90;99.90
11505;DHT22;5809;53.262;10.408;2023-10-19T04:13:45;5.90;99.90
11505;DHT22;5809;53.262;10.408;2023-10-19T04:18:39;5.90;99.90
11505;DHT22;5809;53.262;10.408;2023-10-19T04:21:10;5.90;99.90
11505;DHT22;5809;53.262;10.408;2023-10-19T04:28:37;5.80;99.90
11505;DHT22;5809;53.262;10.408;2023-10-19T04:31:11;6.10;99.90
11505;DHT22;5809;53.262;10.408;2023-10-19T04:33:40;5.80;99.90
11505;DHT22;5809;53.262;10.408;2023-10-19T04:36:13;5.80;99.90
11505;DHT22;5809;53.262;10.408;2023-10-19T04:38:40;5.80;99.90
11505;DHT22;5809;53.262;10.408;2023-10-19T04:41:10;5.80;99.90
11505;DHT22;5809;53.262;10.408;2023-10-19T04:43:38;7.00;99.90
11505;DHT22;5809;53.262;10.408;2023-10-19T04:46:10;5.80;99.90
11505;DHT22;5809;53.262;10.408;2023-10-19T04:48:38;5.80;99.90
11505;DHT22;5809;53.262;10.408;2023-10-19T04:53:36;5.80;99.90
11505;DHT22;5809;53.262;10.408;2023-10-19T04:56:03;5.80;99.90
11505;DHT22;5809;53.262;10.408;2023-10-19T04:58:31;5.80;99.90
11505;DHT22;5809;53.262;10.408;2023-10-19T05:03:27;5.70;99.90
11505;DHT22;5809;53.262;10.408;2023-10-19T05:08:23;5.70;99.90
11505;DHT22;5809;53.262;10.408;2023-10-19T05:10:52;5.70;99.90
11505;DHT22;5809;53.262;10.408;2023-10-19T05:13:20;5.70;99.90
11505;DHT22;5809;53.262;10.408;2023-10-19T05:18:14;5.70;99.90
11505;DHT22;5809;53.262;10.408;2023-10-19T05:23:08;5.70;99.90
11505;DHT22;5809;53.262;10.408;2023-10-19T05:25:35;5.70;99.90
11505;DHT22;5809;53.262;10.408;2023-10-19T05:28:06;5.70;99.90
11505;DHT22;5809;53.262;10.408;2023-10-19T05:30:35;5.80;99.90
11505;DHT22;5809;53.262;10.408;2023-10-19T05:35:30;5.80;99.90
11505;DHT22;5809;53.262;10.408;2023-10-19T05:40:28;5.70;99.90
11505;DHT22;5809;53.262;10.408;2023-10-19T05:42:56;5.10;99.90
11505;DHT22;5809;53.262;10.408;2023-10-19T05:45:24;5.70;99.90
11505;DHT22;5809;53.262;10.408;2023-10-19T05:47:52;5.70;99.90
11505;DHT22;5809;53.262;10.408;2023-10-19T05:50:19;5.70;99.90
11505;DHT22;5809;53.262;10.408;2023-10-19T05:55:14;5.70;99.90
11505;DHT22;5809;53.262;10.408;2023-10-19T06:00:11;5.70;99.90
11505;DHT22;5809;53.262;10.408;2023-10-19T06:02:42;5.80;99.90
11505;DHT22;5809;53.262;10.408;2023-10-19T06:05:10;5.80;99.90
11505;DHT22;5809;53.262;10.408;2023-10-19T06:07:37;5.70;99.90
11505;DHT22;5809;53.262;10.408;2023-10-19T06:10:05;5.70;99.90
11505;DHT22;5809;53.262;10.408;2023-10-19T06:15:00;5.80;99.90
11505;DHT22;5809;53.262;10.408;2023-10-19T06:19:57;5.80;99.90
11505;DHT22;5809;53.262;10.408;2023-10-19T06:22:24;5.80;99.90
11505;DHT22;5809;53.262;10.408;2023-10-19T06:27:19;5.80;99.90
11505;DHT22;5809;53.262;10.408;2023-10-19T06:32:15;5.80;99.90
11505;DHT22;5809;53.262;10.408;2023-10-19T06:37:11;5.80;99.90
11505;DHT22;5809;53.262;10.408;2023-10-19T06:39:38;5.80;99.90
11505;DHT22;5809;53.262;10.408;2023-10-19T06:42:07;5.80;99.90
11505;DHT22;5809;53.262;10.408;2023-10-19T06:44:40;5.80;99.90
11505;DHT22;5809;53.262;10.408;2023-10-19T06:49:35;5.80;99.90
11505;DHT22;5809;53.262;10.408;2023-10-19T06:54:32;10.40;99.90
11505;DHT22;5809;53.262;10.408;2023-10-19T06:56:59;5.80;99.90
11505;DHT22;5809;53.262;10.408;2023-10-19T06:59:28;5.80;99.90
11505;DHT22;5809;53.262;10.408;2023-10-19T07:06:54;5.80;99.90
11505;DHT22;5809;53.262;10.408;2023-10-19T07:11:50;5.80;99.90
11505;DHT22;5809;53.262;10.408;2023-10-19T07:14:19;5.80;99.90
11505;DHT22;5809;53.262;10.408;2023-10-19T07:16:48;5.80;99.90
11505;DHT22;5809;53.262;10.408;2023-10-19T07:19:14;5.90;99.90
11505;DHT22;5809;53.262;10.408;2023-10-19T07:21:41;5.90;99.90
11505;DHT22;5809;53.262;10.408;2023-10-19T07:24:09;5.90;99.90
11505;DHT22;5809;53.262;10.408;2023-10-19T07:26:37;5.90;99.90
11505;DHT22;5809;53.262;10.408;2023-10-19T07:29:20;5.90;99.90
11505;DHT22;5809;53.262;10.408;2023-10-19T07:34:14;5.90;99.90
11505;DHT22;5809;53.262;10.408;2023-10-19T07:39:09;6.00;99.90
11505;DHT22;5809;53.262;10.408;2023-10-19T07:41:44;6.00;99.90
11505;DHT22;5809;53.262;10.408;2023-10-19T07:46:40;6.00;99.90
11505;DHT22;5809;53.262;10.408;2023-10-19T07:54:07;6.00;99.90
11505;DHT22;5809;53.262;10.408;2023-10-19T08:01:29;6.00;99.90
11505;DHT22;5809;53.262;10.408;2023-10-19T08:03:58;6.00;99.90
11505;DHT22;5809;53.262;10.408;2023-10-19T08:08:53;6.00;99.90
11505;DHT22;5809;53.262;10.408;2023-10-19T08:11:20;6.10;99.90
11505;DHT22;5809;53.262;10.408;2023-10-19T08:13:47;6.10;99.90
11505;DHT22;5809;53.262;10.408;2023-10-19T08:18:42;6.20;99.90
11505;DHT22;5809;53.262;10.408;2023-10-19T08:21:10;6.20;99.90
11505;DHT22;5809;53.262;10.408;2023-10-19T08:23:38;6.30;99.90
11505;DHT22;5809;53.262;10.408;2023-10-19T08:26:06;6.40;99.90
11505;DHT22;5809;53.262;10.408;2023-10-19T08:28:34;6.40;99.90
11505;DHT22;5809;53.262;10.408;2023-10-19T08:33:27;6.50;99.90
11505;DHT22;5809;53.262;10.408;2023-10-19T08:35:55;6.50;99.90
11505;DHT22;5809;53.262;10.408;2023-10-19T08:38:24;6.50;99.90
11505;DHT22;5809;53.262;10.408;2023-10-19T08:40:52;6.50;99.90
11505;DHT22;5809;53.262;10.408;2023-10-19T08:43:20;6.50;99.90
11505;DHT22;5809;53.262;10.408;2023-10-19T08:45:47;6.80;99.90
11505;DHT22;5809;53.262;10.408;2023-10-19T08:50:42;6.50;99.90
11505;DHT22;5809;53.262;10.408;2023-10-19T08:53:09;6.40;99.90
11505;DHT22;5809;53.262;10.408;2023-10-19T08:55:40;6.40;99.90
11505;DHT22;5809;53.262;10.408;2023-10-19T08:58:07;6.40;99.90
11505;DHT22;5809;53.262;10.408;2023-10-19T09:00:45;6.50;99.90
11505;DHT22;5809;53.262;10.408;2023-10-19T09:03:14;6.50;99.90
11505;DHT22;5809;53.262;10.408;2023-10-19T09:05:42;6.50;99.90
11505;DHT22;5809;53.262;10.408;2023-10-19T09:08:14;6.40;99.90
11505;DHT22;5809;53.262;10.408;2023-10-19T09:10:44;6.30;99.90
11505;DHT22;5809;53.262;10.408;2023-10-19T09:13:12;6.40;99.90
11505;DHT22;5809;53.262;10.408;2023-10-19T09:15:41;6.40;99.90
11505;DHT22;5809;53.262;10.408;2023-10-19T09:18:14;6.30;99.90
11505;DHT22;5809;53.262;10.408;2023-10-19T09:20:43;6.30;99.90
11505;DHT22;5809;53.262;10.408;2023-10-19T09:23:19;6.30;99.90
11505;DHT22;5809;53.262;10.408;2023-10-19T09:25:48;6.40;99.90
11505;DHT22;5809;53.262;10.408;2023-10-19T09:30:43;6.30;99.90
11505;DHT22;5809;53.262;10.408;2023-10-19T09:35:40;6.30;99.90
11505;DHT22;5809;53.262;10.408;2023-10-19T09:38:09;6.40;99.90
11505;DHT22;5809;53.262;10.408;2023-10-19T09:40:36;6.40;99.90
11505;DHT22;5809;53.262;10.408;2023-10-19T09:43:09;6.40;99.90
11505;DHT22;5809;53.262;10.408;2023-10-19T09:45:41;6.40;99.90
11505;DHT22;5809;53.262;10.408;2023-10-19T09:48:08;6.40;99.90
11505;DHT22;5809;53.262;10.408;2023-10-19T09:50:43;6.40;99.90
11505;DHT22;5809;53.262;10.408;2023-10-19T09:53:11;6.40;99.90
11505;DHT22;5809;53.262;10.408;2023-10-19T09:55:41;6.40;99.90
11505;DHT22;5809;53.262;10.408;2023-10-19T09:58:16;6.40;99.90
11505;DHT22;5809;53.262;10.408;2023-10-19T10:03:41;6.40;99.90
11505;DHT22;5809;53.262;10.408;2023-10-19T10:06:12;6.50;99.90
11505;DHT22;5809;53.262;10.408;2023-10-19T10:08:40;6.50;99.90
11505;DHT22;5809;53.262;10.408;2023-10-19T10:11:16;6.50;99.90
11505;DHT22;5809;53.262;10.408;2023-10-19T10:13:45;6.60;99.90
11505;DHT22;5809;53.262;10.408;2023-10-19T10:16:17;6.50;99.90
11505;DHT22;5809;53.262;10.408;2023-10-19T10:18:47;6.60;99.90
11505;DHT22;5809;53.262;10.408;2023-10-19T10:21:17;6.60;99.90
11505;DHT22;5809;53.262;10.408;2023-10-19T10:23:47;6.60;99.90
11505;DHT22;5809;53.262;10.408;2023-10-19T10:26:15;6.60;99.90
11505;DHT22;5809;53.262;10.408;2023-10-19T10:28:47;6.60;99.90
11505;DHT22;5809;53.262;10.408;2023-10-19T10:31:19;6.60;99.90
11505;DHT22;5809;53.262;10.408;2023-10-19T10:33:49;6.50;99.90
11505;DHT22;5809;53.262;10.408;2023-10-19T10:36:18;6.60;99.90
11505;DHT22;5809;53.262;10.408;2023-10-19T10:38:45;6.60;99.90
11505;DHT22;5809;53.262;10.408;2023-10-19T10:41:18;6.70;99.90
11505;DHT22;5809;53.262;10.408;2023-10-19T10:43:52;6.70;99.90
11505;DHT22;5809;53.262;10.408;2023-10-19T10:46:23;6.60;99.90
11505;DHT22;5809;53.262;10.408;2023-10-19T10:48:51;6.70;99.90
11505;DHT22;5809;53.262;10.408;2023-10-19T10:51:19;6.70;99.90
11505;DHT22;5809;53.262;10.408;2023-10-19T10:53:48;6.60;99.90
11505;DHT22;5809;53.262;10.408;2023-10-19T10:56:16;6.70;99.90
11505;DHT22;5809;53.262;10.408;2023-10-19T10:58:43;6.60;99.90
11505;DHT22;5809;53.262;10.408;2023-10-19T11:01:11;6.60;99.90
11505;DHT22;5809;53.262;10.408;2023-10-19T11:06:07;6.60;99.90
11505;DHT22;5809;53.262;10.408;2023-10-19T11:11:03;6.70;99.90
11505;DHT22;5809;53.262;10.408;2023-10-19T11:16:06;6.80;99.90
11505;DHT22;5809;53.262;10.408;2023-10-19T11:18:37;6.70;99.90
11505;DHT22;5809;53.262;10.408;2023-10-19T11:21:07;6.70;99.90
11505;DHT22;5809;53.262;10.408;2023-10-19T11:23:42;6.70;99.90
11505;DHT22;5809;53.262;10.408;2023-10-19T11:26:09;6.70;99.90
11505;DHT22;5809;53.262;10.408;2023-10-19T11:28:37;6.60;99.90
11505;DHT22;5809;53.262;10.408;2023-10-19T11:31:14;6.60;99.90
11505;DHT22;5809;53.262;10.408;2023-10-19T11:33:43;6.60;99.90
11505;DHT22;5809;53.262;10.408;2023-10-19T11:38:42;6.50;99.90
11505;DHT22;5809;53.262;10.408;2023-10-19T11:41:09;6.50;99.90
11505;DHT22;5809;53.262;10.408;2023-10-19T11:43:36;6.40;99.90
11505;DHT22;5809;53.262;10.408;2023-10-19T11:46:03;6.40;99.90
11505;DHT22;5809;53.262;10.408;2023-10-19T11:48:32;6.40;99.90
11505;DHT22;5809;53.262;10.408;2023-10-19T11:51:00;6.40;99.90
11505;DHT22;5809;53.262;10.408;2023-10-19T11:53:33;6.50;99.90
11505;DHT22;5809;53.262;10.408;2023-10-19T11:56:01;6.50;99.90
11505;DHT22;5809;53.262;10.408;2023-10-19T12:00:58;6.40;99.90
11505;DHT22;5809;53.262;10.408;2023-10-19T12:03:25;6.40;99.90
11505;DHT22;5809;53.262;10.408;2023-10-19T12:05:52;6.40;99.90
11505;DHT22;5809;53.262;10.408;2023-10-19T12:08:22;6.40;99.90
11505;DHT22;5809;53.262;10.408;2023-10-19T12:10:50;6.40;99.90
11505;DHT22;5809;53.262;10.408;2023-10-19T12:13:17;6.40;99.90
11505;DHT22;5809;53.262;10.408;2023-10-19T12:15:44;6.40;99.90
11505;DHT22;5809;53.262;10.408;2023-10-19T12:18:17;6.50;99.90
11505;DHT22;5809;53.262;10.408;2023-10-19T12:20:44;6.40;99.90
11505;DHT22;5809;53.262;10.408;2023-10-19T12:23:13;6.40;99.90
11505;DHT22;5809;53.262;10.408;2023-10-19T12:25:41;6.40;99.90
11505;DHT22;5809;53.262;10.408;2023-10-19T12:28:09;6.40;99.90
11505;DHT22;5809;53.262;10.408;2023-10-19T12:30:40;6.40;99.90
11505;DHT22;5809;53.262;10.408;2023-10-19T12:35:37;6.40;99.90
11505;DHT22;5809;53.262;10.408;2023-10-19T12:38:13;6.50;99.90
11505;DHT22;5809;53.262;10.408;2023-10-19T12:40:45;6.50;99.90
11505;DHT22;5809;53.262;10.408;2023-10-19T12:43:13;6.50;99.90
11505;DHT22;5809;53.262;10.408;2023-10-19T12:45:41;6.40;99.90
11505;DHT22;5809;53.262;10.408;2023-10-19T12:50:38;6.50;99.90
11505;DHT22;5809;53.262;10.408;2023-10-19T12:53:07;6.50;99.90
11505;DHT22;5809;53.262;10.408;2023-10-19T12:55:34;6.50;99.90
11505;DHT22;5809;53.262;10.408;2023-10-19T12:58:04;6.50;99.90
11505;DHT22;5809;53.262;10.408;2023-10-19T13:00:36;6.50;99.90
11505;DHT22;5809;53.262;10.408;2023-10-19T13:03:07;6.50;99.90
11505;DHT22;5809;53.262;10.408;2023-10-19T13:05:35;6.40;99.90
11505;DHT22;5809;53.262;10.408;2023-10-19T13:08:03;6.40;99.90
11505;DHT22;5809;53.262;10.408;2023-10-19T13:10:33;6.40;99.90
11505;DHT22;5809;53.262;10.408;2023-10-19T13:13:00;6.40;99.90
11505;DHT22;5809;53.262;10.408;2023-10-19T13:15:31;6.50;99.90
11505;DHT22;5809;53.262;10.408;2023-10-19T13:20:28;6.50;99.90
11505;DHT22;5809;53.262;10.408;2023-10-19T13:22:59;6.50;99.90
11505;DHT22;5809;53.262;10.408;2023-10-19T13:25:26;6.40;99.90
11505;DHT22;5809;53.262;10.408;2023-10-19T13:28:07;6.50;99.90
11505;DHT22;5809;53.262;10.408;2023-10-19T13:30:40;6.50;99.90
11505;DHT22;5809;53.262;10.408;2023-10-19T13:33:08;6.50;99.90
11505;DHT22;5809;53.262;10.408;2023-10-19T13:35:36;6.50;99.90
11505;DHT22;5809;53.262;10.408;2023-10-19T13:38:04;6.50;99.90
11505;DHT22;5809;53.262;10.408;2023-10-19T13:40:31;6.50;99.90
11505;DHT22;5809;53.262;10.408;2023-10-19T13:42:58;6.50;99.90
11505;DHT22;5809;53.262;10.408;2023-10-19T13:45:25;6.50;99.90
11505;DHT22;5809;53.262;10.408;2023-10-19T13:47:54;3.50;99.90
11505;DHT22;5809;53.262;10.408;2023-10-19T13:50:22;6.50;99.90
11505;DHT22;5809;53.262;10.408;2023-10-19T13:52:50;6.50;99.90
11505;DHT22;5809;53.262;10.408;2023-10-19T13:55:17;6.50;99.90
11505;DHT22;5809;53.262;10.408;2023-10-19T13:57:46;6.50;99.90
11505;DHT22;5809;53.262;10.408;2023-10-19T14:00:14;6.50;99.90
11505;DHT22;5809;53.262;10.408;2023-10-19T14:02:45;6.50;99.90
11505;DHT22;5809;53.262;10.408;2023-10-19T14:05:15;6.40;99.90
11505;DHT22;5809;53.262;10.408;2023-10-19T14:07:42;6.50;99.90
11505;DHT22;5809;53.262;10.408;2023-10-19T14:10:09;6.50;99.90
11505;DHT22;5809;53.262;10.408;2023-10-19T14:12:38;6.50;99.90
11505;DHT22;5809;53.262;10.408;2023-10-19T14:15:13;6.50;99.90
11505;DHT22;5809;53.262;10.408;2023-10-19T14:17:41;6.40;99.90
11505;DHT22;5809;53.262;10.408;2023-10-19T14:20:08;6.40;99.90
11505;DHT22;5809;53.262;10.408;2023-10-19T14:22:40;6.40;99.90
11505;DHT22;5809;53.262;10.408;2023-10-19T14:25:07;6.40;99.90
11505;DHT22;5809;53.262;10.408;2023-10-19T14:27:41;6.50;99.90
11505;DHT22;5809;53.262;10.408;2023-10-19T14:30:10;6.50;99.90
11505;DHT22;5809;53.262;10.408;2023-10-19T14:32:39;6.50;99.90
11505;DHT22;5809;53.262;10.408;2023-10-19T14:37:37;6.50;99.90
11505;DHT22;5809;53.262;10.408;2023-10-19T14:40:08;6.50;99.90
11505;DHT22;5809;53.262;10.408;2023-10-19T14:42:36;6.50;99.90
11505;DHT22;5809;53.262;10.408;2023-10-19T14:45:05;6.60;99.90
11505;DHT22;5809;53.262;10.408;2023-10-19T14:47:35;6.60;99.90
11505;DHT22;5809;53.262;10.408;2023-10-19T14:50:03;6.50;99.90
11505;DHT22;5809;53.262;10.408;2023-10-19T14:54:57;6.50;99.90
11505;DHT22;5809;53.262;10.408;2023-10-19T14:57:26;6.50;99.90
11505;DHT22;5809;53.262;10.408;2023-10-19T15:02:21;6.50;99.90
11505;DHT22;5809;53.262;10.408;2023-10-19T15:04:49;6.50;99.90
11505;DHT22;5809;53.262;10.408;2023-10-19T15:07:16;6.50;99.90
11505;DHT22;5809;53.262;10.408;2023-10-19T15:14:43;6.60;99.90
11505;DHT22;5809;53.262;10.408;2023-10-19T15:19:37;6.50;99.90
11505;DHT22;5809;53.262;10.408;2023-10-19T15:22:04;6.50;99.90
11505;DHT22;5809;53.262;10.408;2023-10-19T15:24:31;6.50;99.90
11505;DHT22;5809;53.262;10.408;2023-10-19T15:29:26;6.50;99.90
11505;DHT22;5809;53.262;10.408;2023-10-19T15:31:56;6.50;99.90
11505;DHT22;5809;53.262;10.408;2023-10-19T15:36:51;6.50;99.90
11505;DHT22;5809;53.262;10.408;2023-10-19T15:41:45;6.50;99.90
11505;DHT22;5809;53.262;10.408;2023-10-19T15:44:12;6.50;99.90
11505;DHT22;5809;53.262;10.408;2023-10-19T15:49:09;6.50;99.90
11505;DHT22;5809;53.262;10.408;2023-10-19T15:51:37;6.50;99.90
11505;DHT22;5809;53.262;10.408;2023-10-19T15:54:05;6.50;99.90
11505;DHT22;5809;53.262;10.408;2023-10-19T15:56:32;6.50;99.90
11505;DHT22;5809;53.262;10.408;2023-10-19T16:01:26;6.50;99.90
11505;DHT22;5809;53.262;10.408;2023-10-19T16:03:54;6.50;99.90
11505;DHT22;5809;53.262;10.408;2023-10-19T16:06:22;6.50;99.90
11505;DHT22;5809;53.262;10.408;2023-10-19T16:13:44;6.50;99.90
11505;DHT22;5809;53.262;10.408;2023-10-19T16:21:06;6.40;99.90
11505;DHT22;5809;53.262;10.408;2023-10-19T16:23:34;6.50;99.90
11505;DHT22;5809;53.262;10.408;2023-10-19T16:31:01;6.40;99.90
11505;DHT22;5809;53.262;10.408;2023-10-19T16:33:29;6.40;99.90
11505;DHT22;5809;53.262;10.408;2023-10-19T16:40:58;6.40;99.90
11505;DHT22;5809;53.262;10.408;2023-10-19T16:45:53;6.40;99.90
11505;DHT22;5809;53.262;10.408;2023-10-19T16:48:20;6.40;99.90
11505;DHT22;5809;53.262;10.408;2023-10-19T16:50:47;6.40;99.90
11505;DHT22;5809;53.262;10.408;2023-10-19T16:53:13;6.40;99.90
11505;DHT22;5809;53.262;10.408;2023-10-19T16:55:40;6.40;99.90
11505;DHT22;5809;53.262;10.408;2023-10-19T16:58:09;6.40;99.90
11505;DHT22;5809;53.262;10.408;2023-10-19T17:03:07;6.30;99.90
11505;DHT22;5809;53.262;10.408;2023-10-19T17:05:35;6.40;99.90
11505;DHT22;5809;53.262;10.408;2023-10-19T17:10:29;6.40;99.90
11505;DHT22;5809;53.262;10.408;2023-10-19T17:12:56;6.40;99.90
11505;DHT22;5809;53.262;10.408;2023-10-19T17:15:24;6.40;99.90
11505;DHT22;5809;53.262;10.408;2023-10-19T17:17:52;6.40;99.90
11505;DHT22;5809;53.262;10.408;2023-10-19T17:20:19;6.40;99.90
11505;DHT22;5809;53.262;10.408;2023-10-19T17:22:46;6.40;99.90
11505;DHT22;5809;53.262;10.408;2023-10-19T17:25:13;6.40;99.90
11505;DHT22;5809;53.262;10.408;2023-10-19T17:30:08;6.40;99.90
11505;DHT22;5809;53.262;10.408;2023-10-19T17:32:40;6.40;99.90
11505;DHT22;5809;53.262;10.408;2023-10-19T17:35:08;6.40;99.90
11505;DHT22;5809;53.262;10.408;2023-10-19T17:37:35;6.40;99.90
11505;DHT22;5809;53.262;10.408;2023-10-19T17:40:02;6.40;99.90
11505;DHT22;5809;53.262;10.408;2023-10-19T17:42:29;6.40;99.90
11505;DHT22;5809;53.262;10.408;2023-10-19T17:44:57;6.40;99.90
11505;DHT22;5809;53.262;10.408;2023-10-19T17:49:54;6.40;99.90
11505;DHT22;5809;53.262;10.408;2023-10-19T17:52:21;6.40;99.90
11505;DHT22;5809;53.262;10.408;2023-10-19T17:57:15;6.50;99.90
11505;DHT22;5809;53.262;10.408;2023-10-19T17:59:43;6.40;99.90
11505;DHT22;5809;53.262;10.408;2023-10-19T18:04:37;6.40;99.90
11505;DHT22;5809;53.262;10.408;2023-10-19T18:07:05;6.40;99.90
11505;DHT22;5809;53.262;10.408;2023-10-19T18:12:03;6.40;99.90
11505;DHT22;5809;53.262;10.408;2023-10-19T18:16:57;6.40;99.90
11505;DHT22;5809;53.262;10.408;2023-10-19T18:21:51;6.50;99.90
11505;DHT22;5809;53.262;10.408;2023-10-19T18:24:21;6.50;99.90
11505;DHT22;5809;53.262;10.408;2023-10-19T18:29:15;6.50;99.90
11505;DHT22;5809;53.262;10.408;2023-10-19T18:31:43;6.50;99.90
11505;DHT22;5809;53.262;10.408;2023-10-19T18:34:10;6.50;99.90
11505;DHT22;5809;53.262;10.408;2023-10-19T18:36:37;6.50;99.90
11505;DHT22;5809;53.262;10.408;2023-10-19T18:39:04;6.50;99.90
11505;DHT22;5809;53.262;10.408;2023-10-19T18:41:32;6.50;99.90
11505;DHT22;5809;53.262;10.408;2023-10-19T18:46:26;6.50;99.90
11505;DHT22;5809;53.262;10.408;2023-10-19T18:48:54;6.50;99.90
11505;DHT22;5809;53.262;10.408;2023-10-19T18:51:21;6.50;99.90
11505;DHT22;5809;53.262;10.408;2023-10-19T18:53:48;6.50;99.90
11505;DHT22;5809;53.262;10.408;2023-10-19T18:58:43;6.50;99.90
11505;DHT22;5809;53.262;10.408;2023-10-19T19:01:10;6.50;99.90
11505;DHT22;5809;53.262;10.408;2023-10-19T19:06:04;6.50;99.90
11505;DHT22;5809;53.262;10.408;2023-10-19T19:08:33;6.50;99.90
11505;DHT22;5809;53.262;10.408;2023-10-19T19:11:08;6.50;99.90
11505;DHT22;5809;53.262;10.408;2023-10-19T19:13:35;6.60;99.90
11505;DHT22;5809;53.262;10.408;2023-10-19T19:16:04;6.50;99.90
11505;DHT22;5809;53.262;10.408;2023-10-19T19:20:59;6.50;99.90
11505;DHT22;5809;53.262;10.408;2023-10-19T19:28:23;6.60;99.90
11505;DHT22;5809;53.262;10.408;2023-10-19T19:30:50;6.60;99.90
11505;DHT22;5809;53.262;10.408;2023-10-19T19:33:19;6.60;99.90
11505;DHT22;5809;53.262;10.408;2023-10-19T19:38:14;6.60;99.90
11505;DHT22;5809;53.262;10.408;2023-10-19T19:40:41;6.60;99.90
11505;DHT22;5809;53.262;10.408;2023-10-19T19:50:37;6.70;99.90
11505;DHT22;5809;53.262;10.408;2023-10-19T19:53:07;6.60;99.90
11505;DHT22;5809;53.262;10.408;2023-10-19T19:55:35;6.60;99.90
11505;DHT22;5809;53.262;10.408;2023-10-19T19:58:02;6.50;99.90
11505;DHT22;5809;53.262;10.408;2023-10-19T20:00:30;6.50;99.90
11505;DHT22;5809;53.262;10.408;2023-10-19T20:02:57;6.60;99.90
11505;DHT22;5809;53.262;10.408;2023-10-19T20:05:25;6.60;99.90
11505;DHT22;5809;53.262;10.408;2023-10-19T20:07:57;6.60;99.90
11505;DHT22;5809;53.262;10.408;2023-10-19T20:10:34;6.60;99.90
11505;DHT22;5809;53.262;10.408;2023-10-19T20:13:03;6.60;99.90
11505;DHT22;5809;53.262;10.408;2023-10-19T20:22:54;6.60;99.90